createdAt,value
2023-12-09T00:01:46.600Z,1.20
2023-12-09T00:03:49.677Z,1.17
2023-12-09T00:05:52.700Z,1.20
2023-12-09T00:07:55.515Z,1.25
2023-12-09T00:09:58.257Z,1.18
2023-12-09T00:12:01.030Z,1.26
2023-12-09T00:14:05.497Z,1.22
2023-12-09T00:16:08.808Z,1.22
2023-12-09T00:18:12.105Z,1.22
2023-12-09T00:20:14.939Z,1.24
2023-12-09T00:22:17.759Z,1.22
2023-12-09T00:24:21.066Z,1.22
2023-12-09T00:26:23.925Z,1.18
2023-12-09T00:28:27.323Z,1.24
2023-12-09T00:30:30.137Z,1.31
2023-12-09T00:32:33.071Z,1.34
2023-12-09T00:34:36.501Z,1.29
2023-12-09T00:36:39.262Z,1.29
2023-12-09T00:38:42.031Z,1.30
2023-12-09T00:40:44.812Z,1.30
2023-12-09T00:42:47.973Z,1.29
2023-12-09T00:44:50.818Z,1.28
2023-12-09T00:46:53.572Z,1.30
2023-12-09T00:48:56.460Z,1.29
2023-12-09T00:50:59.322Z,1.33
2023-12-09T00:53:02.085Z,1.23
2023-12-09T00:55:05.541Z,1.20
2023-12-09T00:57:08.325Z,1.24
2023-12-09T00:59:11.138Z,1.34
2023-12-09T01:01:14.886Z,1.34
2023-12-09T01:03:17.904Z,1.31
2023-12-09T01:05:20.689Z,1.25
2023-12-09T01:07:23.445Z,1.20
2023-12-09T01:09:26.990Z,1.33
2023-12-09T01:11:29.775Z,1.25
2023-12-09T01:13:32.527Z,1.29
2023-12-09T01:15:35.381Z,1.35
2023-12-09T01:17:38.162Z,1.31
2023-12-09T01:19:41.504Z,1.23
2023-12-09T01:21:44.313Z,1.34
2023-12-09T01:23:47.095Z,1.35
2023-12-09T01:25:49.843Z,1.37
2023-12-09T01:27:53.694Z,1.27
2023-12-09T01:29:56.619Z,1.17
2023-12-09T01:31:59.381Z,1.20
2023-12-09T01:34:02.288Z,1.24
2023-12-09T01:36:05.804Z,1.20
2023-12-09T01:38:08.769Z,1.21
2023-12-09T01:40:15.348Z,1.24
2023-12-09T01:42:18.128Z,1.24
2023-12-09T01:44:20.920Z,1.17
2023-12-09T01:46:24.052Z,1.14
2023-12-09T01:48:27.006Z,1.12
2023-12-09T01:50:31.488Z,1.14
2023-12-09T01:52:35.540Z,1.09
2023-12-09T01:54:38.341Z,1.08
2023-12-09T01:56:41.283Z,1.13
2023-12-09T01:58:44.084Z,1.11
2023-12-09T02:00:47.479Z,1.17
2023-12-09T02:02:50.832Z,1.16
2023-12-09T02:04:55.379Z,1.17
2023-12-09T02:06:58.203Z,1.20
2023-12-09T02:09:01.101Z,1.21
2023-12-09T02:11:16.032Z,1.24
2023-12-09T02:13:24.360Z,1.21
2023-12-09T02:15:46.321Z,1.23
2023-12-09T02:17:57.367Z,1.31
2023-12-09T02:20:01.733Z,1.26
2023-12-09T02:22:07.265Z,1.36
2023-12-09T02:24:10.038Z,1.31
2023-12-09T02:26:22.092Z,1.30
2023-12-09T02:28:28.332Z,1.27
2023-12-09T02:30:42.934Z,1.30
2023-12-09T02:32:46.929Z,1.24
2023-12-09T02:34:52.357Z,1.14
2023-12-09T02:36:58.764Z,1.11
2023-12-09T02:39:04.935Z,1.12
2023-12-09T02:41:08.166Z,1.05
2023-12-09T02:43:11.466Z,1.11
2023-12-09T02:45:14.514Z,1.09
2023-12-09T02:47:17.306Z,1.15
2023-12-09T02:49:20.124Z,1.23
2023-12-09T02:51:22.994Z,1.16
2023-12-09T02:53:25.774Z,1.28
2023-12-09T02:55:28.521Z,1.25
2023-12-09T02:57:31.378Z,1.25
2023-12-09T02:59:34.161Z,1.25
2023-12-09T03:01:36.901Z,1.24
2023-12-09T03:03:39.885Z,1.17
2023-12-09T03:05:42.758Z,1.21
2023-12-09T03:07:45.512Z,1.30
2023-12-09T03:09:48.561Z,1.23
2023-12-09T03:11:51.320Z,1.22
2023-12-09T03:13:54.084Z,1.29
2023-12-09T03:15:56.870Z,1.28
2023-12-09T03:17:59.712Z,1.31
2023-12-09T03:20:03.887Z,1.31
2023-12-09T03:22:06.685Z,1.21
2023-12-09T03:24:09.603Z,1.25
2023-12-09T03:26:19.300Z,1.20
2023-12-09T03:28:22.053Z,1.19
2023-12-09T03:30:25.894Z,1.16
2023-12-09T03:32:28.945Z,1.17
2023-12-09T03:34:32.019Z,1.21
2023-12-09T03:36:34.875Z,1.19
2023-12-09T03:38:37.667Z,1.13
2023-12-09T03:40:40.425Z,1.16
2023-12-09T03:42:43.188Z,1.19
2023-12-09T03:44:45.967Z,1.22
2023-12-09T03:46:48.717Z,1.26
2023-12-09T03:48:51.762Z,1.20
2023-12-09T03:50:54.735Z,1.15
2023-12-09T03:52:57.495Z,1.11
2023-12-09T03:55:00.351Z,1.16
2023-12-09T03:57:03.155Z,1.13
2023-12-09T03:59:05.884Z,1.09
2023-12-09T04:01:08.837Z,1.07
2023-12-09T04:03:12.350Z,1.08
2023-12-09T04:05:15.336Z,1.03
2023-12-09T04:07:18.132Z,1.03
2023-12-09T04:09:23.589Z,1.01
2023-12-09T04:11:26.455Z,1.01
2023-12-09T04:13:29.607Z,1.00
2023-12-09T04:15:32.429Z,0.97
2023-12-09T04:17:35.409Z,1.00
2023-12-09T04:19:38.353Z,0.99
2023-12-09T04:21:41.278Z,1.00
2023-12-09T04:23:44.032Z,1.05
2023-12-09T04:25:46.800Z,1.05
2023-12-09T04:27:49.877Z,1.10
2023-12-09T04:29:52.672Z,1.13
2023-12-09T04:31:56.042Z,1.09
2023-12-09T04:33:59.673Z,1.08
2023-12-09T04:36:04.171Z,1.10
2023-12-09T04:38:06.987Z,1.04
2023-12-09T04:40:11.769Z,1.03
2023-12-09T04:42:14.612Z,0.99
2023-12-09T04:44:17.357Z,1.00
2023-12-09T04:46:20.116Z,1.01
2023-12-09T04:48:23.011Z,0.98
2023-12-09T04:50:25.846Z,0.96
2023-12-09T04:52:28.893Z,0.93
2023-12-09T04:54:32.089Z,0.99
2023-12-09T04:56:34.906Z,0.97
2023-12-09T04:58:37.668Z,0.95
2023-12-09T05:00:40.495Z,0.97
2023-12-09T05:02:43.307Z,1.00
2023-12-09T05:04:46.041Z,0.92
2023-12-09T05:06:49.116Z,1.01
2023-12-09T05:08:51.980Z,1.02
2023-12-09T05:10:54.728Z,1.07
2023-12-09T05:12:58.134Z,0.97
2023-12-09T05:15:00.995Z,1.02
2023-12-09T05:17:03.869Z,1.08
2023-12-09T05:19:09.672Z,1.18
2023-12-09T05:21:15.239Z,1.19
2023-12-09T05:23:18.030Z,1.10
2023-12-09T05:25:20.990Z,1.11
2023-12-09T05:27:23.771Z,1.14
2023-12-09T05:29:26.578Z,1.13
2023-12-09T05:31:29.314Z,1.14
2023-12-09T05:33:32.179Z,1.15
2023-12-09T05:35:35.007Z,1.08
2023-12-09T05:37:37.957Z,1.05
2023-12-09T05:39:40.762Z,1.07
2023-12-09T05:41:43.529Z,1.01
2023-12-09T05:43:46.310Z,0.98
2023-12-09T05:45:49.091Z,0.94
2023-12-09T05:47:51.994Z,0.89
2023-12-09T05:49:54.871Z,0.85
2023-12-09T05:51:58.014Z,0.82
2023-12-09T05:54:00.818Z,0.87
2023-12-09T05:56:03.639Z,0.91
2023-12-09T05:58:07.544Z,0.89
2023-12-09T06:00:13.583Z,0.92
2023-12-09T06:02:16.356Z,1.01
2023-12-09T06:04:19.162Z,1.05
2023-12-09T06:06:22.021Z,1.11
2023-12-09T06:08:24.976Z,1.14
2023-12-09T06:10:27.714Z,1.21
2023-12-09T06:12:30.742Z,1.17
2023-12-09T06:14:33.756Z,1.17
2023-12-09T06:16:36.573Z,1.12
2023-12-09T06:18:39.725Z,1.03
2023-12-09T06:20:42.522Z,0.98
2023-12-09T06:22:45.423Z,0.98
2023-12-09T06:24:48.210Z,0.96
2023-12-09T06:26:50.985Z,1.01
2023-12-09T06:28:54.361Z,1.01
2023-12-09T06:30:57.213Z,1.01
2023-12-09T06:33:00.234Z,1.05
2023-12-09T06:35:03.144Z,1.00
2023-12-09T06:37:05.957Z,0.98
2023-12-09T06:39:08.750Z,1.03
2023-12-09T06:41:11.512Z,1.08
2023-12-09T06:43:14.249Z,1.21
2023-12-09T06:45:17.576Z,1.18
2023-12-09T06:47:20.414Z,1.13
2023-12-09T06:49:23.238Z,1.07
2023-12-09T06:51:26.384Z,1.02
2023-12-09T06:53:29.204Z,1.06
2023-12-09T06:55:31.977Z,1.10
2023-12-09T06:57:35.848Z,1.06
2023-12-09T06:59:38.787Z,1.05
2023-12-09T07:01:43.807Z,1.08
2023-12-09T07:03:46.769Z,1.09
2023-12-09T07:05:49.630Z,1.05
2023-12-09T07:07:52.481Z,1.03
2023-12-09T07:09:57.205Z,1.06
2023-12-09T07:12:02.409Z,1.07
2023-12-09T07:14:06.319Z,1.13
2023-12-09T07:16:11.045Z,1.22
2023-12-09T07:18:15.246Z,1.12
2023-12-09T07:20:19.413Z,1.15
2023-12-09T07:22:23.652Z,1.19
2023-12-09T07:24:26.457Z,1.22
2023-12-09T07:26:29.403Z,1.22
2023-12-09T07:28:32.165Z,1.30
2023-12-09T07:30:34.968Z,1.28
2023-12-09T07:32:37.844Z,1.27
2023-12-09T07:34:41.148Z,1.30
2023-12-09T07:36:44.475Z,1.33
2023-12-09T07:38:47.265Z,1.35
2023-12-09T07:40:50.015Z,1.28
2023-12-09T07:42:52.787Z,1.38
2023-12-09T07:44:55.566Z,1.37
2023-12-09T07:46:58.310Z,1.35
2023-12-09T07:49:01.133Z,1.46
2023-12-09T07:51:04.059Z,1.47
2023-12-09T07:53:07.154Z,1.51
2023-12-09T07:55:10.499Z,1.43
2023-12-09T07:57:13.284Z,1.53
2023-12-09T07:59:16.112Z,1.59
2023-12-09T08:01:19.620Z,1.64
2023-12-09T08:03:22.549Z,1.63
2023-12-09T08:05:25.408Z,1.66
2023-12-09T08:07:28.540Z,1.65
2023-12-09T08:09:31.499Z,1.58
2023-12-09T08:11:34.309Z,1.59
2023-12-09T08:13:37.100Z,1.60
2023-12-09T08:15:39.902Z,1.73
2023-12-09T08:17:42.784Z,1.66
2023-12-09T08:19:45.646Z,1.79
2023-12-09T08:21:48.499Z,1.92
2023-12-09T08:23:51.308Z,1.77
2023-12-09T08:25:54.058Z,1.78
2023-12-09T08:27:56.819Z,1.84
2023-12-09T08:29:59.607Z,1.91
2023-12-09T08:32:02.523Z,1.88
2023-12-09T08:34:05.696Z,1.89
2023-12-09T08:36:08.801Z,1.98
2023-12-09T08:38:11.577Z,1.92
2023-12-09T08:40:14.448Z,2.02
2023-12-09T08:42:17.290Z,2.05
2023-12-09T08:44:20.576Z,2.10
2023-12-09T08:46:23.378Z,2.13
2023-12-09T08:48:26.273Z,2.03
2023-12-09T08:50:29.201Z,2.06
2023-12-09T08:52:32.886Z,2.04
2023-12-09T08:54:35.655Z,2.07
2023-12-09T08:56:38.489Z,2.24
2023-12-09T08:58:41.244Z,2.22
2023-12-09T09:00:44.143Z,2.29
2023-12-09T09:02:48.427Z,2.42
2023-12-09T09:04:51.253Z,2.44
2023-12-09T09:06:54.016Z,2.45
2023-12-09T09:08:56.787Z,2.51
2023-12-09T09:10:59.544Z,2.28
2023-12-09T09:13:02.306Z,2.39
2023-12-09T09:15:07.572Z,2.46
2023-12-09T09:17:11.467Z,2.47
2023-12-09T09:19:14.304Z,2.43
2023-12-09T09:21:18.025Z,2.44
2023-12-09T09:23:20.836Z,2.45
2023-12-09T09:25:23.629Z,2.55
2023-12-09T09:27:26.996Z,2.48
2023-12-09T09:29:29.874Z,2.54
2023-12-09T09:31:32.671Z,2.53
2023-12-09T09:33:35.613Z,2.49
2023-12-09T09:35:38.427Z,2.49
2023-12-09T09:37:41.214Z,2.45
2023-12-09T09:39:44.272Z,2.23
2023-12-09T09:42:10.911Z,2.26
2023-12-09T09:44:19.965Z,2.32
2023-12-09T09:46:23.374Z,2.43
2023-12-09T09:48:28.536Z,2.33
2023-12-09T09:50:39.126Z,2.12
2023-12-09T09:52:42.723Z,2.15
2023-12-09T09:54:46.999Z,2.15
2023-12-09T09:56:51.596Z,2.02
2023-12-09T09:58:54.679Z,2.20
2023-12-09T10:00:58.418Z,2.27
2023-12-09T10:03:04.225Z,2.45
2023-12-09T10:05:07.482Z,2.37
2023-12-09T10:07:10.466Z,2.21
2023-12-09T10:09:14.029Z,2.39
2023-12-09T10:11:16.869Z,2.39
2023-12-09T10:13:19.620Z,2.52
2023-12-09T10:15:22.724Z,2.42
2023-12-09T10:17:26.415Z,2.31
2023-12-09T10:19:29.415Z,2.04
2023-12-09T10:21:32.301Z,2.20
2023-12-09T10:23:36.812Z,2.17
2023-12-09T10:25:41.169Z,2.19
2023-12-09T10:27:44.213Z,2.18
2023-12-09T10:29:47.913Z,2.13
2023-12-09T10:31:51.787Z,2.18
2023-12-09T10:33:54.683Z,2.18
2023-12-09T10:36:01.419Z,1.97
2023-12-09T10:38:06.088Z,2.06
2023-12-09T10:40:10.197Z,2.16
2023-12-09T10:42:13.495Z,2.13
2023-12-09T10:44:17.953Z,2.24
2023-12-09T10:46:20.822Z,2.20
2023-12-09T10:48:23.786Z,2.41
2023-12-09T10:50:26.943Z,2.34
2023-12-09T10:52:30.638Z,2.44
2023-12-09T10:54:33.568Z,2.58
2023-12-09T10:56:36.388Z,2.49
2023-12-09T10:58:41.983Z,2.52
2023-12-09T11:00:45.105Z,2.34
2023-12-09T11:02:49.272Z,2.32
2023-12-09T11:04:53.663Z,2.40
2023-12-09T11:07:03.536Z,2.39
2023-12-09T11:09:09.093Z,2.51
2023-12-09T11:11:12.745Z,2.56
2023-12-09T11:13:15.800Z,2.53
2023-12-09T11:15:29.732Z,2.59
2023-12-09T11:17:35.878Z,2.68
2023-12-09T11:19:39.099Z,2.66
2023-12-09T11:21:46.556Z,2.61
2023-12-09T11:23:51.563Z,2.58
2023-12-09T11:25:54.348Z,2.69
2023-12-09T11:27:59.381Z,2.71
2023-12-09T11:30:02.638Z,2.70
2023-12-09T11:32:08.214Z,2.61
2023-12-09T11:34:17.225Z,2.69
2023-12-09T11:36:20.161Z,2.70
2023-12-09T11:38:24.852Z,2.73
2023-12-09T11:40:32.362Z,2.78
2023-12-09T11:42:37.689Z,2.69
2023-12-09T11:44:42.677Z,2.74
2023-12-09T11:46:47.026Z,2.71
2023-12-09T11:48:53.397Z,2.77
2023-12-09T11:50:56.214Z,2.69
2023-12-09T11:52:59.598Z,2.70
2023-12-09T11:55:05.284Z,2.70
2023-12-09T11:57:08.057Z,2.68
2023-12-09T11:59:11.205Z,2.70
2023-12-09T12:01:14.025Z,2.66
2023-12-09T12:03:16.894Z,2.66
2023-12-09T12:05:19.788Z,2.59
2023-12-09T12:07:22.814Z,2.58
2023-12-09T12:09:25.752Z,2.63
2023-12-09T12:11:28.723Z,2.48
2023-12-09T12:13:52.809Z,2.55
2023-12-09T12:15:56.187Z,2.57
2023-12-09T12:18:02.513Z,2.54
2023-12-09T12:20:07.516Z,2.55
2023-12-09T12:22:10.288Z,2.52
2023-12-09T12:24:13.093Z,2.58
2023-12-09T12:26:15.875Z,2.61
2023-12-09T12:28:18.638Z,2.62
2023-12-09T12:30:21.457Z,2.59
2023-12-09T12:32:24.291Z,2.58
2023-12-09T12:34:27.591Z,2.49
2023-12-09T12:36:30.684Z,2.50
2023-12-09T12:38:33.634Z,2.52
2023-12-09T12:40:36.377Z,2.49
2023-12-09T12:42:39.632Z,2.54
2023-12-09T12:44:43.176Z,2.41
2023-12-09T12:46:46.359Z,2.35
2023-12-09T12:48:49.362Z,2.45
2023-12-09T12:50:52.466Z,2.49
2023-12-09T12:52:55.537Z,2.33
2023-12-09T12:54:58.369Z,2.35
2023-12-09T12:57:01.189Z,2.36
2023-12-09T12:59:03.950Z,2.40
2023-12-09T13:01:07.421Z,2.44
2023-12-09T13:03:10.278Z,2.34
2023-12-09T13:05:13.179Z,2.22
2023-12-09T13:07:15.959Z,2.19
2023-12-09T13:09:18.792Z,2.20
2023-12-09T13:11:21.647Z,2.33
2023-12-09T13:13:25.128Z,2.30
2023-12-09T13:15:28.464Z,2.23
2023-12-09T13:17:31.311Z,2.24
2023-12-09T13:19:34.171Z,2.34
2023-12-09T13:21:37.287Z,2.30
2023-12-09T13:23:40.126Z,2.24
2023-12-09T13:25:42.916Z,2.24
2023-12-09T13:27:46.165Z,2.21
2023-12-09T13:29:48.985Z,2.27
2023-12-09T13:31:51.752Z,2.18
2023-12-09T13:33:54.612Z,2.14
2023-12-09T13:35:57.608Z,2.07
2023-12-09T13:38:03.538Z,2.11
2023-12-09T13:40:08.828Z,2.06
2023-12-09T13:42:13.867Z,2.18
2023-12-09T13:44:16.795Z,2.08
2023-12-09T13:46:19.714Z,2.08
2023-12-09T13:48:22.779Z,2.11
2023-12-09T13:50:27.645Z,2.11
2023-12-09T13:52:35.349Z,2.06
2023-12-09T13:54:38.330Z,1.97
2023-12-09T13:56:41.344Z,1.95
2023-12-09T13:58:44.092Z,2.00
2023-12-09T14:00:47.031Z,2.02
2023-12-09T14:02:50.012Z,1.89
2023-12-09T14:04:53.718Z,1.96
2023-12-09T14:06:56.579Z,1.91
2023-12-09T14:08:59.351Z,1.79
2023-12-09T14:11:02.103Z,1.69
2023-12-09T14:13:04.904Z,1.69
2023-12-09T14:15:08.909Z,1.74
2023-12-09T14:17:13.126Z,1.73
2023-12-09T14:19:16.535Z,1.81
2023-12-09T14:21:19.432Z,1.75
2023-12-09T14:23:22.213Z,1.70
2023-12-09T14:25:25.040Z,1.55
2023-12-09T14:27:27.874Z,1.64
2023-12-09T14:29:30.698Z,1.58
2023-12-09T14:31:34.328Z,1.60
2023-12-09T14:33:39.559Z,1.57
2023-12-09T14:35:43.043Z,1.56
2023-12-09T14:37:49.789Z,1.48
2023-12-09T14:39:52.601Z,1.54
2023-12-09T14:41:55.403Z,1.49
2023-12-09T14:44:03.406Z,1.43
2023-12-09T14:46:08.821Z,1.45
2023-12-09T14:48:12.869Z,1.34
2023-12-09T14:50:15.969Z,1.41
2023-12-09T14:52:18.988Z,1.41
2023-12-09T14:54:21.909Z,1.35
2023-12-09T14:56:24.690Z,1.44
2023-12-09T14:58:28.310Z,1.41
2023-12-09T15:00:31.838Z,1.47
2023-12-09T15:02:34.695Z,1.52
2023-12-09T15:04:38.210Z,1.49
2023-12-09T15:06:41.172Z,1.44
2023-12-09T15:08:44.042Z,1.37
2023-12-09T15:10:47.140Z,1.24
2023-12-09T15:12:49.985Z,1.27
2023-12-09T15:14:52.966Z,1.28
2023-12-09T15:16:55.771Z,1.18
2023-12-09T15:18:58.830Z,1.28
2023-12-09T15:21:01.693Z,1.34
2023-12-09T15:23:04.462Z,1.32
2023-12-09T15:25:07.510Z,1.28
2023-12-09T15:27:10.691Z,1.16
2023-12-09T15:29:13.474Z,1.13
2023-12-09T15:31:16.275Z,1.06
2023-12-09T15:33:19.743Z,1.07
2023-12-09T15:35:22.592Z,0.94
2023-12-09T15:37:25.393Z,0.90
2023-12-09T15:39:28.140Z,0.87
2023-12-09T15:41:31.732Z,0.96
2023-12-09T15:43:34.630Z,0.94
2023-12-09T15:45:37.413Z,0.99
2023-12-09T15:47:40.318Z,0.97
2023-12-09T15:49:43.229Z,1.05
2023-12-09T15:51:46.061Z,1.08
2023-12-09T15:53:48.870Z,1.04
2023-12-09T15:55:51.628Z,0.96
2023-12-09T15:57:59.026Z,1.00
2023-12-09T16:00:01.885Z,0.96
2023-12-09T16:02:07.714Z,0.97
2023-12-09T16:04:10.634Z,1.00
2023-12-09T16:06:13.514Z,1.05
2023-12-09T16:08:16.321Z,0.97
2023-12-09T16:10:19.576Z,1.00
2023-12-09T16:12:22.466Z,1.02
2023-12-09T16:14:25.473Z,1.01
2023-12-09T16:16:28.403Z,0.91
2023-12-09T16:18:31.385Z,0.89
2023-12-09T16:20:34.891Z,0.98
2023-12-09T16:22:38.578Z,0.89
2023-12-09T16:24:41.478Z,0.92
2023-12-09T16:26:44.963Z,0.89
2023-12-09T16:28:48.016Z,0.95
2023-12-09T16:30:50.921Z,0.86
2023-12-09T16:32:53.928Z,0.96
2023-12-09T16:34:56.754Z,0.88
2023-12-09T16:36:59.955Z,0.76
2023-12-09T16:39:02.813Z,0.78
2023-12-09T16:41:05.782Z,0.87
2023-12-09T16:43:08.633Z,0.97
2023-12-09T16:45:12.677Z,0.97
2023-12-09T16:47:17.158Z,0.97
2023-12-09T16:49:20.283Z,0.90
2023-12-09T16:51:23.163Z,0.83
2023-12-09T16:53:26.041Z,0.84
2023-12-09T16:55:28.792Z,0.92
2023-12-09T16:57:31.690Z,0.97
2023-12-09T16:59:34.540Z,0.85
2023-12-09T17:01:40.374Z,0.85
2023-12-09T17:03:43.302Z,0.95
2023-12-09T17:05:46.218Z,0.91
2023-12-09T17:07:50.124Z,0.90
2023-12-09T17:09:52.921Z,0.96
2023-12-09T17:11:55.716Z,0.93
2023-12-09T17:13:58.505Z,0.85
2023-12-09T17:16:01.261Z,0.86
2023-12-09T17:18:04.500Z,0.86
2023-12-09T17:20:08.144Z,0.94
2023-12-09T17:22:10.893Z,0.95
2023-12-09T17:24:13.712Z,0.97
2023-12-09T17:26:16.531Z,0.95
2023-12-09T17:28:19.999Z,0.93
2023-12-09T17:30:22.956Z,0.82
2023-12-09T17:32:25.869Z,0.80
2023-12-09T17:34:28.857Z,0.79
2023-12-09T17:36:32.055Z,0.82
2023-12-09T17:38:34.839Z,0.75
2023-12-09T17:40:37.619Z,0.79
2023-12-09T17:42:40.531Z,0.73
2023-12-09T17:44:43.374Z,0.71
2023-12-09T17:46:46.792Z,0.78
2023-12-09T17:48:49.752Z,0.76
2023-12-09T17:50:53.028Z,0.80
2023-12-09T17:52:55.799Z,0.70
2023-12-09T17:54:58.558Z,0.71
2023-12-09T17:57:01.359Z,0.66
2023-12-09T17:59:04.139Z,0.66
2023-12-09T18:01:07.053Z,0.60
2023-12-09T18:03:09.971Z,0.62
2023-12-09T18:05:13.426Z,0.68
2023-12-09T18:07:17.348Z,0.70
2023-12-09T18:09:20.481Z,0.65
2023-12-09T18:11:23.596Z,0.72
2023-12-09T18:13:26.368Z,0.81
2023-12-09T18:15:29.234Z,0.76
2023-12-09T18:17:32.043Z,0.84
2023-12-09T18:19:34.952Z,0.87
2023-12-09T18:21:37.829Z,0.80
2023-12-09T18:23:40.744Z,0.73
2023-12-09T18:25:43.562Z,0.68
2023-12-09T18:27:46.568Z,0.61
2023-12-09T18:29:49.317Z,0.61
2023-12-09T18:31:52.079Z,0.60
2023-12-09T18:33:55.154Z,0.68
2023-12-09T18:35:58.014Z,0.73
2023-12-09T18:38:00.923Z,0.59
2023-12-09T18:40:07.113Z,0.59
2023-12-09T18:42:10.590Z,0.58
2023-12-09T18:44:13.423Z,0.53
2023-12-09T18:46:17.161Z,0.54
2023-12-09T18:48:20.364Z,0.46
2023-12-09T18:50:23.220Z,0.45
2023-12-09T18:52:26.279Z,0.46
2023-12-09T18:54:29.241Z,0.51
2023-12-09T18:56:37.795Z,0.38
2023-12-09T18:58:40.572Z,0.31
2023-12-09T19:00:43.477Z,0.20
2023-12-09T19:02:47.764Z,0.23
2023-12-09T19:04:51.071Z,0.11
2023-12-09T19:06:59.344Z,0.14
2023-12-09T19:09:03.885Z,0.16
2023-12-09T19:11:07.358Z,0.17
2023-12-09T19:13:10.415Z,0.29
2023-12-09T19:15:14.233Z,0.33
2023-12-09T19:17:17.414Z,0.31
2023-12-09T19:19:23.396Z,0.33
2023-12-09T19:21:26.402Z,0.30
2023-12-09T19:23:29.224Z,0.07
2023-12-09T19:25:31.988Z,0.19
2023-12-09T19:27:34.784Z,0.21
2023-12-09T19:29:40.455Z,0.10
2023-12-09T19:31:46.933Z,0.16
2023-12-09T19:33:49.966Z,0.11
2023-12-09T19:35:52.883Z,0.04
2023-12-09T19:37:56.419Z,0.07
2023-12-09T19:39:59.174Z,0.02
2023-12-09T19:42:01.948Z,-0.12
2023-12-09T19:44:05.067Z,-0.13
2023-12-09T19:46:07.904Z,-0.12
2023-12-09T19:48:10.828Z,-0.15
2023-12-09T19:50:13.871Z,-0.12
2023-12-09T19:52:16.825Z,-0.24
2023-12-09T19:54:19.692Z,-0.33
2023-12-09T19:56:22.993Z,-0.42
2023-12-09T19:58:25.755Z,-0.47
2023-12-09T20:00:28.931Z,-0.46
2023-12-09T20:02:31.884Z,-0.39
2023-12-09T20:04:34.864Z,-0.38
2023-12-09T20:06:38.657Z,-0.35
2023-12-09T20:08:41.719Z,-0.26
2023-12-09T20:10:45.930Z,-0.16
2023-12-09T20:12:49.477Z,-0.49
2023-12-09T20:14:52.417Z,-0.46
2023-12-09T20:16:55.278Z,-0.55
2023-12-09T20:18:58.186Z,-0.49
2023-12-09T20:21:01.954Z,-0.52
2023-12-09T20:23:05.597Z,-0.39
2023-12-09T20:25:08.761Z,-0.37
2023-12-09T20:27:11.667Z,-0.37
2023-12-09T20:29:14.464Z,-0.27
2023-12-09T20:31:17.693Z,-0.17
2023-12-09T20:33:20.527Z,-0.09
2023-12-09T20:35:23.447Z,-0.09
2023-12-09T20:37:26.272Z,-0.11
2023-12-09T20:39:29.147Z,0.00
2023-12-09T20:41:31.936Z,0.02
2023-12-09T20:43:34.693Z,-0.04
2023-12-09T20:45:38.183Z,-0.15
2023-12-09T20:47:42.342Z,-0.08
2023-12-09T20:49:45.385Z,-0.06
2023-12-09T20:51:48.683Z,-0.21
2023-12-09T20:53:51.569Z,-0.42
2023-12-09T20:55:54.383Z,-0.45
2023-12-09T20:57:57.178Z,-0.35
2023-12-09T20:59:59.945Z,-0.28
2023-12-09T21:02:02.761Z,-0.35
2023-12-09T21:04:05.765Z,-0.20
2023-12-09T21:06:11.702Z,-0.14
2023-12-09T21:08:14.473Z,-0.06
2023-12-09T21:10:17.380Z,-0.02
2023-12-09T21:12:20.162Z,-0.17
2023-12-09T21:14:22.969Z,-0.18
2023-12-09T21:16:25.745Z,-0.25
2023-12-09T21:18:28.704Z,-0.09
2023-12-09T21:20:32.310Z,-0.11
2023-12-09T21:22:36.022Z,-0.18
2023-12-09T21:24:39.175Z,-0.18
2023-12-09T21:26:41.926Z,-0.23
2023-12-09T21:28:44.745Z,-0.28
2023-12-09T21:30:47.535Z,-0.13
2023-12-09T21:32:50.306Z,-0.37
2023-12-09T21:34:53.102Z,-0.39
2023-12-09T21:36:55.988Z,-0.19
2023-12-09T21:38:58.803Z,0.01
2023-12-09T21:41:01.544Z,-0.21
2023-12-09T21:43:05.305Z,-0.01
2023-12-09T21:45:08.546Z,-0.15
2023-12-09T21:47:11.424Z,-0.14
2023-12-09T21:49:14.598Z,-0.12
2023-12-09T21:51:18.486Z,-0.23
2023-12-09T21:53:21.395Z,-0.40
2023-12-09T21:55:24.697Z,-0.31
2023-12-09T21:57:28.587Z,-0.26
2023-12-09T21:59:31.353Z,-0.34
2023-12-09T22:01:36.618Z,-0.36
2023-12-09T22:03:39.698Z,-0.47
2023-12-09T22:05:42.482Z,-0.55
2023-12-09T22:07:45.241Z,-0.46
2023-12-09T22:09:48.507Z,-0.44
2023-12-09T22:11:51.553Z,-0.46
2023-12-09T22:13:54.393Z,-0.35
2023-12-09T22:15:57.293Z,-0.40
2023-12-09T22:18:00.405Z,-0.49
2023-12-09T22:20:03.504Z,-0.44
2023-12-09T22:22:06.279Z,-0.37
2023-12-09T22:24:09.162Z,-0.35
2023-12-09T22:26:11.994Z,-0.28
2023-12-09T22:28:14.816Z,-0.19
2023-12-09T22:30:17.724Z,-0.18
2023-12-09T22:32:22.296Z,-0.30
2023-12-09T22:34:26.533Z,-0.42
2023-12-09T22:36:29.385Z,-0.32
2023-12-09T22:38:32.247Z,-0.38
2023-12-09T22:40:35.230Z,-0.34
2023-12-09T22:42:38.750Z,-0.37
2023-12-09T22:44:44.496Z,-0.20
2023-12-09T22:46:47.236Z,-0.18
2023-12-09T22:48:50.212Z,-0.23
2023-12-09T22:50:54.871Z,-0.23
2023-12-09T22:52:57.732Z,-0.06
2023-12-09T22:55:00.660Z,-0.28
2023-12-09T22:57:09.637Z,-0.38
2023-12-09T22:59:12.503Z,-0.37
2023-12-09T23:01:15.384Z,-0.31
2023-12-09T23:03:18.244Z,-0.40
2023-12-09T23:05:21.044Z,-0.32
2023-12-09T23:07:24.242Z,-0.34
2023-12-09T23:09:27.115Z,-0.38
2023-12-09T23:11:29.916Z,-0.28
2023-12-09T23:13:32.757Z,-0.25
2023-12-09T23:15:35.505Z,-0.22
2023-12-09T23:17:38.383Z,-0.25
2023-12-09T23:19:42.207Z,-0.22
2023-12-09T23:21:45.040Z,-0.28
2023-12-09T23:23:47.808Z,-0.24
2023-12-09T23:25:51.135Z,-0.26
2023-12-09T23:27:53.910Z,-0.31
2023-12-09T23:29:56.665Z,-0.27
2023-12-09T23:31:59.419Z,-0.20
2023-12-09T23:34:02.250Z,-0.25
2023-12-09T23:36:05.273Z,-0.26
2023-12-09T23:38:13.151Z,-0.31
2023-12-09T23:40:15.992Z,-0.10
2023-12-09T23:42:18.812Z,-0.01
2023-12-09T23:44:22.885Z,-0.16
2023-12-09T23:46:25.631Z,-0.18
2023-12-09T23:48:28.574Z,-0.11
2023-12-09T23:50:31.465Z,-0.10
2023-12-09T23:52:34.232Z,-0.13
2023-12-09T23:54:37.083Z,-0.13
2023-12-09T23:56:39.860Z,-0.16
2023-12-09T23:58:43.449Z,-0.11
